Time;durP1;ratioP1;P1;durP2;ratioP2;P2;SDS_P1;SDS_P2;PMS_P1;PMS_P2;Temp;Humidity;BMP_temperature;BMP_pressure;BME280_temperature;BME280_humidity;BME280_pressure;Samples;Min_cycle;Max_cycle;Signal;HPM_P1;HPM_P2
2023/09/06 00:01:03;;;;;;;14.67;7.67;;;;;;;;;;5114234;28;20106;-27
2023/09/06 00:03:10;;;;;;;9.95;7.43;;;;;;;;;;5105850;28;20341;-27
2023/09/06 00:05:41;;;;;;;16.30;7.20;;;;;;;;;;5114181;28;20577;-27
2023/09/06 00:08:11;;;;;;;13.60;7.72;;;;;;;;;;5114448;28;20027;-27
2023/09/06 00:10:40;;;;;;;16.52;7.90;;;;;;;;;;5114073;28;20012;-27
2023/09/06 00:13:06;;;;;;;10.55;7.60;;;;;;;;;;5096130;28;20042;-27
2023/09/06 00:15:31;;;;;;;12.65;7.75;;;;;;;;;;5114060;28;20092;-27
2023/09/06 00:17:57;;;;;;;9.75;7.30;;;;;;;;;;5114123;28;20064;-27
2023/09/06 00:20:23;;;;;;;15.60;7.75;;;;;;;;;;5114276;28;20495;-27
2023/09/06 00:22:55;;;;;;;11.77;7.80;;;;;;;;;;5114310;28;20427;-27
2023/09/06 00:25:21;;;;;;;10.68;7.72;;;;;;;;;;5112290;28;20019;-27
2023/09/06 00:27:46;;;;;;;14.48;7.70;;;;;;;;;;5114163;28;20023;-26
2023/09/06 00:30:11;;;;;;;16.07;8.00;;;;;;;;;;5114343;28;20077;-27
2023/09/06 00:32:36;;;;;;;12.20;8.10;;;;;;;;;;5113849;28;20494;-27
2023/09/06 00:35:01;;;;;;;13.20;7.60;;;;;;;;;;5113886;28;20245;-27
2023/09/06 00:37:37;;;;;;;11.80;8.05;;;;;;;;;;5114644;28;20146;-27
2023/09/06 00:40:11;;;;;;;11.27;7.20;;;;;;;;;;5113881;28;20470;-27
2023/09/06 00:42:36;;;;;;;8.85;7.25;;;;;;;;;;5114113;28;20031;-28
2023/09/06 00:45:01;;;;;;;12.15;7.72;;;;;;;;;;5113774;28;20462;-26
2023/09/06 00:47:26;;;;;;;10.88;7.28;;;;;;;;;;5114019;28;20166;-27
2023/09/06 00:49:52;;;;;;;13.77;7.33;;;;;;;;;;5113768;28;20019;-27
2023/09/06 00:52:17;;;;;;;11.73;7.75;;;;;;;;;;5113890;28;20723;-26
2023/09/06 00:54:42;;;;;;;11.52;6.85;;;;;;;;;;5113716;28;20026;-27
2023/09/06 00:57:08;;;;;;;13.32;7.93;;;;;;;;;;5114174;28;20055;-27
2023/09/06 00:59:33;;;;;;;15.15;7.30;;;;;;;;;;5114539;28;20016;-27
2023/09/06 01:01:58;;;;;;;10.40;7.10;;;;;;;;;;5113605;28;20020;-27
2023/09/06 01:04:25;;;;;;;12.73;7.43;;;;;;;;;;5113598;28;20020;-27
2023/09/06 01:06:56;;;;;;;14.00;6.93;;;;;;;;;;5113818;28;20265;-27
2023/09/06 01:09:21;;;;;;;9.40;7.03;;;;;;;;;;5114050;28;20020;-27
2023/09/06 01:11:46;;;;;;;10.07;6.45;;;;;;;;;;5113797;28;20111;-26
2023/09/06 01:14:11;;;;;;;8.97;6.90;;;;;;;;;;5099283;28;20072;-27
2023/09/06 01:16:39;;;;;;;9.30;6.73;;;;;;;;;;5117993;28;20303;-27
2023/09/06 01:19:06;;;;;;;9.82;6.60;;;;;;;;;;5117594;28;20381;-27
2023/09/06 01:21:36;;;;;;;11.80;6.10;;;;;;;;;;5117316;28;20083;-27
2023/09/06 01:24:02;;;;;;;8.80;6.30;;;;;;;;;;5117547;28;20051;-27
2023/09/06 01:26:27;;;;;;;9.85;6.45;;;;;;;;;;5117226;28;20019;-26
2023/09/06 01:28:52;;;;;;;8.77;5.43;;;;;;;;;;5117760;28;20024;-27
2023/09/06 01:31:18;;;;;;;8.63;6.07;;;;;;;;;;5117009;28;20478;-27
2023/09/06 01:33:43;;;;;;;11.75;6.00;;;;;;;;;;5117327;28;20254;-27
2023/09/06 01:36:08;;;;;;;8.68;5.85;;;;;;;;;;5117276;28;20416;-27
2023/09/06 01:38:33;;;;;;;9.90;5.60;;;;;;;;;;5116915;28;20482;-27
2023/09/06 01:40:59;;;;;;;6.37;5.50;;;;;;;;;;5117026;28;20027;-26
2023/09/06 01:43:24;;;;;;;10.45;5.72;;;;;;;;;;5116857;28;20261;-27
2023/09/06 01:45:54;;;;;;;9.27;5.77;;;;;;;;;;5116907;28;20064;-27
2023/09/06 01:48:19;;;;;;;11.55;5.90;;;;;;;;;;5116652;28;20300;-27
2023/09/06 01:50:45;;;;;;;9.27;5.40;;;;;;;;;;5117197;28;20073;-27
2023/09/06 01:53:13;;;;;;;8.48;5.53;;;;;;;;;;5098446;28;20034;-27
2023/09/06 01:55:38;;;;;;;10.27;5.38;;;;;;;;;;5116951;28;20152;-27
2023/09/06 01:58:04;;;;;;;7.67;5.43;;;;;;;;;;5098287;28;20073;-27
2023/09/06 02:00:34;;;;;;;8.27;5.55;;;;;;;;;;5116847;28;20023;-27
2023/09/06 02:03:00;;;;;;;8.98;4.97;;;;;;;;;;5117107;28;20136;-27
2023/09/06 02:05:25;;;;;;;7.35;4.95;;;;;;;;;;5116982;28;20028;-27
2023/09/06 02:07:50;;;;;;;7.75;5.30;;;;;;;;;;5116482;28;20023;-27
2023/09/06 02:10:16;;;;;;;10.30;4.93;;;;;;;;;;5116409;28;20135;-27
2023/09/06 02:12:41;;;;;;;6.60;5.25;;;;;;;;;;5116555;28;20469;-27
2023/09/06 02:15:13;;;;;;;7.30;5.28;;;;;;;;;;5116561;28;20050;-27
2023/09/06 02:17:38;;;;;;;8.98;5.07;;;;;;;;;;5116300;28;20012;-27
2023/09/06 02:20:13;;;;;;;7.57;5.07;;;;;;;;;;5116172;28;20107;-27
2023/09/06 02:22:41;;;;;;;8.20;5.15;;;;;;;;;;5116096;28;20268;-27
2023/09/06 02:25:08;;;;;;;11.13;4.93;;;;;;;;;;5115187;28;20039;-27
2023/09/06 02:27:33;;;;;;;8.80;4.80;;;;;;;;;;5116069;28;20493;-27
2023/09/06 02:29:58;;;;;;;7.47;4.82;;;;;;;;;;5116245;28;20094;-27
2023/09/06 02:32:24;;;;;;;6.95;4.75;;;;;;;;;;5116471;28;20028;-27
2023/09/06 02:34:50;;;;;;;14.48;4.90;;;;;;;;;;5115988;28;20454;-27
2023/09/06 02:37:15;;;;;;;8.48;4.57;;;;;;;;;;5116419;28;20023;-27
2023/09/06 02:39:40;;;;;;;7.13;4.40;;;;;;;;;;5115866;28;20023;-27
2023/09/06 02:42:05;;;;;;;7.90;5.00;;;;;;;;;;5115766;28;20270;-27
2023/09/06 02:44:30;;;;;;;10.90;4.38;;;;;;;;;;5115704;28;20257;-27
2023/09/06 02:46:56;;;;;;;10.27;4.40;;;;;;;;;;5116020;28;20030;-26
2023/09/06 02:49:22;;;;;;;6.72;4.70;;;;;;;;;;5116201;28;20434;-26
2023/09/06 02:51:48;;;;;;;6.97;4.20;;;;;;;;;;5115800;28;20481;-28
2023/09/06 02:54:17;;;;;;;8.57;4.50;;;;;;;;;;5115533;28;20020;-26
2023/09/06 02:56:43;;;;;;;6.80;4.20;;;;;;;;;;5115338;28;20258;-26
2023/09/06 02:59:15;;;;;;;9.00;5.10;;;;;;;;;;5115720;28;20015;-26
2023/09/06 03:01:44;;;;;;;7.45;5.20;;;;;;;;;;5115631;28;20044;-27
2023/09/06 03:04:13;;;;;;;10.82;5.50;;;;;;;;;;5098005;28;20031;-27
2023/09/06 03:06:39;;;;;;;13.77;5.68;;;;;;;;;;5116080;28;20028;-27
2023/09/06 03:09:07;;;;;;;7.47;5.57;;;;;;;;;;5115208;28;20027;-27
2023/09/06 03:11:32;;;;;;;10.65;5.63;;;;;;;;;;5115662;28;20026;-27
2023/09/06 03:13:58;;;;;;;7.78;5.78;;;;;;;;;;5115095;28;20016;-27
2023/09/06 03:16:23;;;;;;;8.20;5.53;;;;;;;;;;5115033;28;20068;-27
2023/09/06 03:18:52;;;;;;;10.32;6.10;;;;;;;;;;5115348;28;20050;-27
2023/09/06 03:21:18;;;;;;;10.13;6.40;;;;;;;;;;5114938;28;20019;-27
2023/09/06 03:23:44;;;;;;;11.98;6.45;;;;;;;;;;5115135;28;20073;-27
2023/09/06 03:26:10;;;;;;;11.23;6.40;;;;;;;;;;5114859;28;20022;-27
2023/09/06 03:28:40;;;;;;;9.45;6.20;;;;;;;;;;5115132;28;20043;-27
2023/09/06 03:31:14;;;;;;;13.20;6.68;;;;;;;;;;5114672;28;20019;-27
2023/09/06 03:33:40;;;;;;;10.55;6.43;;;;;;;;;;5115289;28;20019;-27
2023/09/06 03:36:09;;;;;;;9.13;6.40;;;;;;;;;;5114407;28;20007;-27
2023/09/06 03:38:34;;;;;;;12.00;6.80;;;;;;;;;;5114956;28;20022;-27
2023/09/06 03:41:02;;;;;;;12.15;6.68;;;;;;;;;;5114826;28;20019;-27
2023/09/06 03:43:30;;;;;;;9.88;7.05;;;;;;;;;;5114851;28;20027;-27
2023/09/06 03:45:58;;;;;;;8.00;6.55;;;;;;;;;;5114790;28;20027;-26
2023/09/06 03:48:25;;;;;;;11.55;6.10;;;;;;;;;;5114588;28;20055;-27
2023/09/06 03:50:55;;;;;;;11.77;6.50;;;;;;;;;;5114640;28;20157;-26
2023/09/06 03:53:20;;;;;;;10.98;6.97;;;;;;;;;;5114418;28;20011;-27
2023/09/06 03:55:46;;;;;;;14.35;6.32;;;;;;;;;;5114391;28;20526;-27
2023/09/06 03:58:12;;;;;;;8.82;6.97;;;;;;;;;;5114353;28;20095;-27
2023/09/06 04:00:43;;;;;;;11.57;6.88;;;;;;;;;;5114506;28;20042;-26
2023/09/06 04:03:10;;;;;;;15.17;7.00;;;;;;;;;;5114573;28;20088;-27
2023/09/06 04:05:35;;;;;;;9.20;6.85;;;;;;;;;;5114139;28;20277;-27
2023/09/06 04:08:04;;;;;;;8.55;6.38;;;;;;;;;;5095997;28;20022;-26
2023/09/06 04:10:36;;;;;;;9.57;6.50;;;;;;;;;;5114709;28;20015;-27
2023/09/06 04:13:01;;;;;;;7.93;6.33;;;;;;;;;;5113956;28;20062;-27
2023/09/06 04:15:29;;;;;;;9.20;6.85;;;;;;;;;;5114494;28;20047;-27
2023/09/06 04:17:58;;;;;;;10.88;6.68;;;;;;;;;;5114047;28;20351;-27
2023/09/06 04:20:30;;;;;;;11.55;6.50;;;;;;;;;;5114042;28;20023;-27
2023/09/06 04:22:56;;;;;;;11.18;6.78;;;;;;;;;;5114226;28;20385;-27
2023/09/06 04:25:22;;;;;;;10.57;7.10;;;;;;;;;;5114261;28;20019;-27
2023/09/06 04:27:48;;;;;;;8.60;6.35;;;;;;;;;;5114215;28;20027;-27
2023/09/06 04:30:17;;;;;;;11.10;6.75;;;;;;;;;;5113919;28;20024;-28
2023/09/06 04:32:44;;;;;;;11.18;6.63;;;;;;;;;;5114122;28;20024;-27
2023/09/06 04:35:09;;;;;;;9.82;6.70;;;;;;;;;;5114152;28;20446;-27
2023/09/06 04:37:36;;;;;;;10.02;6.75;;;;;;;;;;5113796;28;20026;-26
2023/09/06 04:40:01;;;;;;;8.40;6.43;;;;;;;;;;5114007;28;20020;-26
2023/09/06 04:42:26;;;;;;;11.13;6.25;;;;;;;;;;5114277;28;20464;-26
2023/09/06 04:44:52;;;;;;;9.60;6.20;;;;;;;;;;5113747;28;20032;-27
2023/09/06 04:47:17;;;;;;;11.55;6.57;;;;;;;;;;5115182;28;20667;-27
2023/09/06 04:49:45;;;;;;;9.02;6.50;;;;;;;;;;5117886;28;20462;-27
2023/09/06 04:52:10;;;;;;;11.35;6.40;;;;;;;;;;5117688;28;20509;-27
2023/09/06 04:54:35;;;;;;;8.23;6.20;;;;;;;;;;5117837;28;20091;-28
2023/09/06 04:57:01;;;;;;;9.77;6.28;;;;;;;;;;5099428;28;20016;-26
2023/09/06 04:59:26;;;;;;;12.40;6.85;;;;;;;;;;5117580;28;20027;-26
2023/09/06 05:01:51;;;;;;;8.63;6.30;;;;;;;;;;5117588;28;20040;-26
2023/09/06 05:04:19;;;;;;;10.93;6.60;;;;;;;;;;5099150;28;20769;-26
2023/09/06 05:06:44;;;;;;;9.50;6.50;;;;;;;;;;5117381;28;20023;-26
2023/09/06 05:09:10;;;;;;;9.43;6.63;;;;;;;;;;5117700;28;20023;-26
2023/09/06 05:11:35;;;;;;;10.32;6.82;;;;;;;;;;5117245;28;20077;-26
2023/09/06 05:14:00;;;;;;;12.90;7.07;;;;;;;;;;5117819;28;20090;-26
2023/09/06 05:16:26;;;;;;;11.10;6.97;;;;;;;;;;5117317;28;20268;-26
2023/09/06 05:18:52;;;;;;;8.68;6.32;;;;;;;;;;5117535;28;20112;-26
2023/09/06 05:21:18;;;;;;;14.05;6.68;;;;;;;;;;5117412;28;20031;-26
2023/09/06 05:23:43;;;;;;;16.98;6.97;;;;;;;;;;5082020;28;20382;-26
2023/09/06 05:26:10;;;;;;;13.80;7.53;;;;;;;;;;5117080;28;20481;-26
2023/09/06 05:28:35;;;;;;;9.05;6.60;;;;;;;;;;5117578;28;20020;-26
2023/09/06 05:31:01;;;;;;;12.57;6.75;;;;;;;;;;5116920;28;20015;-26
2023/09/06 05:33:26;;;;;;;11.80;7.30;;;;;;;;;;5116829;28;20112;-26
2023/09/06 05:35:54;;;;;;;11.38;7.10;;;;;;;;;;5116882;28;20007;-26
2023/09/06 05:38:19;;;;;;;12.73;6.93;;;;;;;;;;5116910;28;20020;-26
2023/09/06 05:40:45;;;;;;;10.57;7.05;;;;;;;;;;5117089;28;20084;-26
2023/09/06 05:43:10;;;;;;;15.98;7.18;;;;;;;;;;5117314;28;20439;-26
2023/09/06 05:45:35;;;;;;;11.65;6.85;;;;;;;;;;5116977;28;20026;-26
2023/09/06 05:48:00;;;;;;;11.43;6.83;;;;;;;;;;5116775;28;20035;-26
2023/09/06 05:50:27;;;;;;;11.30;6.43;;;;;;;;;;5117165;28;20159;-26
2023/09/06 05:52:53;;;;;;;9.10;6.72;;;;;;;;;;5116753;28;20288;-26
2023/09/06 05:55:18;;;;;;;11.83;7.00;;;;;;;;;;5117059;28;20016;-26
2023/09/06 05:57:43;;;;;;;12.83;7.10;;;;;;;;;;5116206;28;20348;-26
2023/09/06 06:00:18;;;;;;;9.93;7.22;;;;;;;;;;5116368;28;20023;-27
2023/09/06 06:02:46;;;;;;;13.02;7.55;;;;;;;;;;5116404;28;20023;-27
2023/09/06 06:05:12;;;;;;;12.32;7.00;;;;;;;;;;5116814;28;20064;-27
2023/09/06 06:07:37;;;;;;;9.90;7.00;;;;;;;;;;5116205;28;20027;-28
2023/09/06 06:10:03;;;;;;;9.13;6.80;;;;;;;;;;5116279;28;20019;-27
2023/09/06 06:12:28;;;;;;;11.07;6.93;;;;;;;;;;5114366;28;20396;-27
2023/09/06 06:14:53;;;;;;;12.70;7.23;;;;;;;;;;5114133;28;20458;-27
2023/09/06 06:17:19;;;;;;;11.60;7.30;;;;;;;;;;5114734;28;20325;-28
2023/09/06 06:19:45;;;;;;;8.75;6.85;;;;;;;;;;5114436;28;20285;-28
2023/09/06 06:22:11;;;;;;;12.77;6.47;;;;;;;;;;5112729;28;20050;-27
2023/09/06 06:24:36;;;;;;;10.70;6.25;;;;;;;;;;5095456;28;20026;-27
2023/09/06 06:27:01;;;;;;;15.75;6.80;;;;;;;;;;5115166;28;20020;-28
2023/09/06 06:29:27;;;;;;;10.52;6.20;;;;;;;;;;5116619;28;20027;-27
2023/09/06 06:31:52;;;;;;;12.20;6.07;;;;;;;;;;5116345;28;20056;-27
2023/09/06 06:34:20;;;;;;;11.55;6.22;;;;;;;;;;5116041;28;20287;-27
2023/09/06 06:36:46;;;;;;;15.93;6.30;;;;;;;;;;5115707;28;20012;-27
2023/09/06 06:39:12;;;;;;;10.05;6.25;;;;;;;;;;5116058;28;20120;-27
2023/09/06 06:41:37;;;;;;;11.52;6.70;;;;;;;;;;5115807;28;20026;-27
2023/09/06 06:44:02;;;;;;;11.65;6.22;;;;;;;;;;5116177;28;20019;-27
2023/09/06 06:46:35;;;;;;;14.23;5.78;;;;;;;;;;5115438;28;20497;-27
2023/09/06 06:49:04;;;;;;;10.35;5.57;;;;;;;;;;5115351;28;20047;-27
2023/09/06 06:51:35;;;;;;;9.63;5.63;;;;;;;;;;5115281;28;20016;-27
2023/09/06 06:54:03;;;;;;;9.35;5.40;;;;;;;;;;5115669;28;20023;-28
2023/09/06 06:56:28;;;;;;;9.35;5.28;;;;;;;;;;5115385;28;20016;-28
2023/09/06 06:58:54;;;;;;;9.20;4.80;;;;;;;;;;5115840;28;20034;-26
2023/09/06 07:01:20;;;;;;;11.13;4.70;;;;;;;;;;5115873;28;20103;-28
2023/09/06 07:03:46;;;;;;;9.25;4.30;;;;;;;;;;5115177;28;20026;-26
2023/09/06 07:06:11;;;;;;;6.15;4.25;;;;;;;;;;5115057;28;20419;-26
2023/09/06 07:08:37;;;;;;;8.00;3.72;;;;;;;;;;5114719;28;20045;-26
2023/09/06 07:11:04;;;;;;;5.28;3.83;;;;;;;;;;5112880;28;20095;-26
2023/09/06 07:13:30;;;;;;;6.88;3.65;;;;;;;;;;5115268;28;20023;-27
2023/09/06 07:15:55;;;;;;;8.67;3.60;;;;;;;;;;5114930;28;20455;-27
2023/09/06 07:18:20;;;;;;;8.75;3.83;;;;;;;;;;5115001;28;20034;-27
2023/09/06 07:20:47;;;;;;;8.43;3.60;;;;;;;;;;5114835;28;20020;-27
2023/09/06 07:23:12;;;;;;;7.72;3.60;;;;;;;;;;5114816;28;20346;-27
2023/09/06 07:25:37;;;;;;;9.10;3.20;;;;;;;;;;5114818;28;20050;-27
2023/09/06 07:28:02;;;;;;;6.13;3.27;;;;;;;;;;5114629;28;20114;-28
2023/09/06 07:30:28;;;;;;;7.07;3.10;;;;;;;;;;5114475;28;20055;-27
2023/09/06 07:32:53;;;;;;;8.47;3.10;;;;;;;;;;5114543;28;20022;-27
2023/09/06 07:35:18;;;;;;;6.60;3.10;;;;;;;;;;5096352;28;20489;-27
2023/09/06 07:37:43;;;;;;;4.80;2.90;;;;;;;;;;5114529;28;20023;-27
2023/09/06 07:40:09;;;;;;;6.97;3.13;;;;;;;;;;5115026;28;20023;-27
2023/09/06 07:42:40;;;;;;;8.27;3.10;;;;;;;;;;5114451;28;20103;-27
2023/09/06 07:45:06;;;;;;;6.43;2.75;;;;;;;;;;5114431;28;20570;-28
2023/09/06 07:47:32;;;;;;;7.28;2.67;;;;;;;;;;5114299;28;20520;-28
2023/09/06 07:49:57;;;;;;;4.73;2.90;;;;;;;;;;5114366;28;20016;-27
2023/09/06 07:52:22;;;;;;;4.73;2.83;;;;;;;;;;5114185;28;20019;-28
2023/09/06 07:54:47;;;;;;;4.83;2.60;;;;;;;;;;5114251;28;20023;-28
2023/09/06 07:57:12;;;;;;;7.87;2.60;;;;;;;;;;5114119;28;20595;-28
2023/09/06 07:59:38;;;;;;;6.33;2.70;;;;;;;;;;5113211;28;20551;-28
2023/09/06 08:02:03;;;;;;;5.07;2.53;;;;;;;;;;5113796;28;20088;-28
2023/09/06 08:04:28;;;;;;;6.43;2.60;;;;;;;;;;5113816;28;20023;-28
2023/09/06 08:06:55;;;;;;;3.67;2.47;;;;;;;;;;5113775;28;20048;-28
2023/09/06 08:09:20;;;;;;;7.70;2.90;;;;;;;;;;5114164;28;20011;-28
2023/09/06 08:11:46;;;;;;;4.07;2.50;;;;;;;;;;5095854;28;20115;-28
2023/09/06 08:14:11;;;;;;;4.87;2.50;;;;;;;;;;5095952;28;20020;-26
2023/09/06 08:16:36;;;;;;;5.17;2.80;;;;;;;;;;5095877;28;20438;-27
2023/09/06 08:19:03;;;;;;;6.83;2.97;;;;;;;;;;5114580;28;20068;-27
2023/09/06 08:21:28;;;;;;;5.95;2.58;;;;;;;;;;5113323;28;20380;-28
2023/09/06 08:23:54;;;;;;;9.02;2.78;;;;;;;;;;5095288;28;20028;-28
2023/09/06 08:26:19;;;;;;;5.07;2.47;;;;;;;;;;5113398;28;20485;-27
2023/09/06 08:28:44;;;;;;;5.75;2.70;;;;;;;;;;5113688;28;20015;-28
2023/09/06 08:31:09;;;;;;;5.70;2.70;;;;;;;;;;5112565;28;20073;-27
2023/09/06 08:33:35;;;;;;;7.00;2.58;;;;;;;;;;5112310;28;20101;-28
2023/09/06 08:36:00;;;;;;;4.73;2.40;;;;;;;;;;5114001;28;20028;-28
2023/09/06 08:38:26;;;;;;;6.07;2.33;;;;;;;;;;5095428;28;20364;-27
2023/09/06 08:40:51;;;;;;;7.82;2.70;;;;;;;;;;5113484;28;20451;-27
2023/09/06 08:43:18;;;;;;;4.20;2.63;;;;;;;;;;5114113;28;20016;-27
2023/09/06 08:45:43;;;;;;;7.03;2.72;;;;;;;;;;5113597;28;20027;-27
2023/09/06 08:48:09;;;;;;;4.33;2.60;;;;;;;;;;5113566;28;20125;-28
2023/09/06 08:50:35;;;;;;;5.88;2.30;;;;;;;;;;5113448;28;20274;-27
2023/09/06 08:53:02;;;;;;;4.68;2.22;;;;;;;;;;5113608;28;20018;-31
2023/09/06 08:55:27;;;;;;;8.73;2.53;;;;;;;;;;5113369;28;20055;-27
2023/09/06 08:57:52;;;;;;;9.43;2.70;;;;;;;;;;5111777;28;20047;-27
2023/09/06 09:00:18;;;;;;;5.72;2.47;;;;;;;;;;5112837;28;20020;-27
2023/09/06 09:02:43;;;;;;;7.03;2.55;;;;;;;;;;5113462;28;20024;-28
2023/09/06 09:05:10;;;;;;;6.60;2.80;;;;;;;;;;5113762;28;20148;-27
2023/09/06 09:07:36;;;;;;;6.20;2.70;;;;;;;;;;5095074;28;20016;-27
2023/09/06 09:10:04;;;;;;;7.88;2.60;;;;;;;;;;5113179;28;20015;-27
2023/09/06 09:12:29;;;;;;;5.03;2.50;;;;;;;;;;5113243;28;20141;-28
2023/09/06 09:14:56;;;;;;;6.18;2.80;;;;;;;;;;5111431;28;20415;-28
2023/09/06 09:17:22;;;;;;;8.10;2.50;;;;;;;;;;5111204;28;20425;-29
2023/09/06 09:19:50;;;;;;;4.20;2.70;;;;;;;;;;5111100;28;20020;-27
2023/09/06 09:22:20;;;;;;;7.75;2.50;;;;;;;;;;5111358;28;20462;-27
2023/09/06 09:24:46;;;;;;;3.88;2.60;;;;;;;;;;5111116;28;20026;-28
2023/09/06 09:27:11;;;;;;;5.93;2.30;;;;;;;;;;5111044;28;20020;-27
2023/09/06 09:29:37;;;;;;;4.70;2.70;;;;;;;;;;5112034;28;20041;-27
2023/09/06 09:32:03;;;;;;;6.93;2.80;;;;;;;;;;5113155;28;20284;-27
2023/09/06 09:34:28;;;;;;;4.57;2.33;;;;;;;;;;5116453;28;20012;-27
2023/09/06 09:36:54;;;;;;;8.18;2.83;;;;;;;;;;5116922;28;20461;-27
2023/09/06 09:39:24;;;;;;;6.80;2.38;;;;;;;;;;5117019;28;20023;-27
2023/09/06 09:41:50;;;;;;;9.75;2.47;;;;;;;;;;5117445;28;20023;-28
2023/09/06 09:44:15;;;;;;;6.80;2.60;;;;;;;;;;5117344;28;20015;-28
2023/09/06 09:46:42;;;;;;;6.03;2.90;;;;;;;;;;5116790;28;20030;-28
2023/09/06 09:49:07;;;;;;;4.50;2.60;;;;;;;;;;5116575;28;20047;-27
2023/09/06 09:51:33;;;;;;;4.05;2.40;;;;;;;;;;5116708;28;20031;-28
2023/09/06 09:53:59;;;;;;;5.65;2.50;;;;;;;;;;5116379;28;20094;-28
2023/09/06 09:56:24;;;;;;;6.20;2.40;;;;;;;;;;5116790;28;20461;-27
2023/09/06 09:58:51;;;;;;;8.67;2.67;;;;;;;;;;5116598;28;20094;-27
2023/09/06 10:01:16;;;;;;;6.45;2.40;;;;;;;;;;5116778;28;20020;-28
2023/09/06 10:03:43;;;;;;;5.72;2.60;;;;;;;;;;5098120;28;20122;-29
2023/09/06 10:06:10;;;;;;;7.25;2.83;;;;;;;;;;5116316;28;20110;-28
2023/09/06 10:08:37;;;;;;;6.25;2.30;;;;;;;;;;5098067;28;20046;-27
2023/09/06 10:11:05;;;;;;;4.68;2.42;;;;;;;;;;5116239;28;20047;-28
2023/09/06 10:13:31;;;;;;;5.85;3.00;;;;;;;;;;5116264;28;20392;-28
2023/09/06 10:15:56;;;;;;;3.70;2.35;;;;;;;;;;5116218;28;20023;-28
2023/09/06 10:18:22;;;;;;;5.00;2.45;;;;;;;;;;5116305;28;20018;-28
2023/09/06 10:20:47;;;;;;;4.88;2.80;;;;;;;;;;5116115;28;20482;-27
2023/09/06 10:23:13;;;;;;;9.55;2.70;;;;;;;;;;5116055;28;20015;-27
2023/09/06 10:25:43;;;;;;;5.03;2.70;;;;;;;;;;5115975;28;20027;-27
2023/09/06 10:28:08;;;;;;;4.63;2.30;;;;;;;;;;5115956;28;20035;-28
2023/09/06 10:33:35;;;;;;;5.07;2.58;;;;;;;;;;5092084;28;20042;-28
2023/09/06 10:36:06;;;;;;;5.53;2.65;;;;;;;;;;5115617;28;20024;-28
2023/09/06 10:38:33;;;;;;;7.90;2.78;;;;;;;;;;5116283;28;20450;-28
2023/09/06 10:41:02;;;;;;;4.38;2.70;;;;;;;;;;5115959;28;20016;-28
2023/09/06 10:43:42;;;;;;;7.68;2.67;;;;;;;;;;5115550;28;20410;-28
2023/09/06 10:46:07;;;;;;;10.05;2.85;;;;;;;;;;5113874;28;20033;-28
2023/09/06 10:48:32;;;;;;;11.27;3.10;;;;;;;;;;5115043;28;20058;-28
2023/09/06 10:51:03;;;;;;;8.43;2.85;;;;;;;;;;5115339;28;20058;-28
2023/09/06 10:53:28;;;;;;;7.47;2.80;;;;;;;;;;5115303;28;20016;-28
2023/09/06 10:55:55;;;;;;;10.80;2.70;;;;;;;;;;5115745;28;20080;-28
2023/09/06 10:58:22;;;;;;;12.68;3.03;;;;;;;;;;5096967;28;20262;-28
2023/09/06 11:01:07;;;;;;;7.10;2.97;;;;;;;;;;5114877;28;20036;-27
2023/09/06 11:03:33;;;;;;;6.53;2.88;;;;;;;;;;5096931;28;20027;-28
2023/09/06 11:05:58;;;;;;;7.43;2.70;;;;;;;;;;5115844;28;20018;-28
2023/09/06 11:08:29;;;;;;;5.17;2.60;;;;;;;;;;5115803;28;20102;-28
2023/09/06 11:11:05;;;;;;;8.13;2.83;;;;;;;;;;5115505;28;20348;-27
2023/09/06 11:13:32;;;;;;;8.55;2.72;;;;;;;;;;5115384;28;20023;-27
2023/09/06 11:15:58;;;;;;;6.60;2.65;;;;;;;;;;5115377;28;20020;-28
2023/09/06 11:18:23;;;;;;;6.65;2.10;;;;;;;;;;5115058;28;20039;-27
2023/09/06 11:20:49;;;;;;;6.80;2.50;;;;;;;;;;5114921;28;20047;-29
2023/09/06 11:23:15;;;;;;;4.68;2.38;;;;;;;;;;5115379;28;20257;-28
2023/09/06 11:25:41;;;;;;;8.18;2.65;;;;;;;;;;5115079;28;20080;-28
2023/09/06 11:28:19;;;;;;;8.27;2.40;;;;;;;;;;5114640;28;20372;-28
2023/09/06 11:30:46;;;;;;;5.70;2.30;;;;;;;;;;5114654;28;20763;-28
2023/09/06 11:33:12;;;;;;;4.70;2.10;;;;;;;;;;5114242;28;20012;-28
2023/09/06 11:35:40;;;;;;;3.65;2.30;;;;;;;;;;5114527;28;20030;-28
2023/09/06 11:38:07;;;;;;;7.10;2.42;;;;;;;;;;5114828;28;20434;-27
2023/09/06 11:40:34;;;;;;;4.03;2.55;;;;;;;;;;5112518;28;20099;-27
2023/09/06 11:43:04;;;;;;;5.90;2.40;;;;;;;;;;5114474;28;20030;-28
2023/09/06 11:45:31;;;;;;;4.00;2.40;;;;;;;;;;5114603;28;20027;-27
2023/09/06 11:47:59;;;;;;;3.80;2.20;;;;;;;;;;5114320;28;20047;-27
2023/09/06 11:50:24;;;;;;;6.03;2.55;;;;;;;;;;5113914;28;20369;-27
2023/09/06 11:52:50;;;;;;;5.27;2.37;;;;;;;;;;5114781;28;20019;-27
2023/09/06 11:55:16;;;;;;;4.70;2.50;;;;;;;;;;5114887;28;20245;-27
2023/09/06 11:57:46;;;;;;;8.80;2.45;;;;;;;;;;5113939;28;20016;-27
2023/09/06 12:00:25;;;;;;;8.80;2.42;;;;;;;;;;5114134;28;20026;-27
2023/09/06 12:02:51;;;;;;;7.47;2.20;;;;;;;;;;5112440;28;20020;-27
2023/09/06 12:05:21;;;;;;;7.82;2.33;;;;;;;;;;5112195;28;20034;-27
2023/09/06 12:07:46;;;;;;;3.45;2.15;;;;;;;;;;5111227;28;20466;-27
2023/09/06 12:10:16;;;;;;;5.27;2.20;;;;;;;;;;5111616;28;20020;-27
2023/09/06 12:12:42;;;;;;;8.15;2.30;;;;;;;;;;5111350;28;20451;-27
2023/09/06 12:15:11;;;;;;;4.75;2.40;;;;;;;;;;5111324;28;20100;-27
2023/09/06 12:17:36;;;;;;;10.57;2.30;;;;;;;;;;5111296;28;20351;-27
2023/09/06 12:20:04;;;;;;;7.50;2.30;;;;;;;;;;5111330;28;20072;-28
2023/09/06 12:22:30;;;;;;;6.18;2.35;;;;;;;;;;5111829;28;20024;-27
2023/09/06 12:24:55;;;;;;;5.13;2.25;;;;;;;;;;5112577;28;20114;-27
2023/09/06 12:27:23;;;;;;;4.97;2.30;;;;;;;;;;5113232;28;20459;-27
2023/09/06 12:29:48;;;;;;;4.63;2.25;;;;;;;;;;5095445;28;20023;-27
2023/09/06 12:32:13;;;;;;;3.33;2.17;;;;;;;;;;5113717;28;20527;-27
2023/09/06 12:34:38;;;;;;;4.00;2.27;;;;;;;;;;5113987;28;20081;-26
2023/09/06 12:37:03;;;;;;;4.80;2.37;;;;;;;;;;5113710;28;20596;-28
2023/09/06 12:39:29;;;;;;;5.53;2.50;;;;;;;;;;5113963;28;20249;-28
2023/09/06 12:41:55;;;;;;;6.17;2.23;;;;;;;;;;5113651;28;20454;-27
2023/09/06 12:44:20;;;;;;;5.30;2.60;;;;;;;;;;5113654;28;20015;-27
2023/09/06 12:46:45;;;;;;;3.67;1.97;;;;;;;;;;5113993;28;20023;-28
2023/09/06 12:49:11;;;;;;;8.48;2.40;;;;;;;;;;5113518;28;20424;-27
2023/09/06 12:51:37;;;;;;;5.57;3.20;;;;;;;;;;5113494;28;20028;-27
2023/09/06 12:54:03;;;;;;;3.88;2.30;;;;;;;;;;5113453;28;20027;-26
2023/09/06 12:56:28;;;;;;;4.80;2.00;;;;;;;;;;5113410;28;20098;-28
2023/09/06 12:58:53;;;;;;;9.10;2.07;;;;;;;;;;5113537;28;20055;-27
2023/09/06 13:01:18;;;;;;;25.00;2.70;;;;;;;;;;5113783;28;20756;-27
2023/09/06 13:03:44;;;;;;;4.43;2.10;;;;;;;;;;5113484;28;20027;-27
2023/09/06 13:06:09;;;;;;;5.25;2.10;;;;;;;;;;5113455;28;20019;-27
2023/09/06 13:08:36;;;;;;;5.17;2.67;;;;;;;;;;5115711;28;20008;-27
2023/09/06 13:11:01;;;;;;;5.05;3.15;;;;;;;;;;5117638;28;20020;-27
2023/09/06 13:13:26;;;;;;;7.93;2.50;;;;;;;;;;5117998;28;20510;-27
2023/09/06 13:15:51;;;;;;;7.20;2.73;;;;;;;;;;5117852;28;20237;-27
2023/09/06 13:18:19;;;;;;;8.97;2.90;;;;;;;;;;5117361;28;20490;-27
2023/09/06 13:20:44;;;;;;;3.47;2.33;;;;;;;;;;5117508;28;20031;-27
2023/09/06 13:23:10;;;;;;;9.27;2.73;;;;;;;;;;5117515;28;20016;-27
2023/09/06 13:25:35;;;;;;;6.53;2.45;;;;;;;;;;5117481;28;20026;-28
2023/09/06 13:28:00;;;;;;;5.45;2.45;;;;;;;;;;5117325;28;20413;-28
2023/09/06 13:30:25;;;;;;;4.13;2.20;;;;;;;;;;5117305;28;20441;-28
2023/09/06 13:32:51;;;;;;;9.13;2.37;;;;;;;;;;5117199;28;20470;-28
2023/09/06 13:35:16;;;;;;;4.33;2.20;;;;;;;;;;5117062;28;20099;-28
2023/09/06 13:37:41;;;;;;;4.70;2.20;;;;;;;;;;5117413;28;20064;-27
2023/09/06 13:40:08;;;;;;;6.70;2.40;;;;;;;;;;5117090;28;20414;-27
2023/09/06 13:42:33;;;;;;;6.47;2.10;;;;;;;;;;5117334;28;20710;-28
2023/09/06 13:44:58;;;;;;;4.30;2.30;;;;;;;;;;5116793;28;20055;-28
2023/09/06 13:47:24;;;;;;;3.93;2.30;;;;;;;;;;5117164;28;20280;-27
2023/09/06 13:49:50;;;;;;;5.32;2.40;;;;;;;;;;5116938;28;20404;-28
2023/09/06 13:52:15;;;;;;;6.20;2.60;;;;;;;;;;5116677;28;20018;-28
2023/09/06 13:54:40;;;;;;;3.87;2.30;;;;;;;;;;5116817;28;20016;-28
2023/09/06 13:57:07;;;;;;;4.80;2.23;;;;;;;;;;5117157;28;20293;-28
2023/09/06 13:59:32;;;;;;;6.93;2.20;;;;;;;;;;5116988;28;20090;-28
2023/09/06 14:01:57;;;;;;;4.93;2.30;;;;;;;;;;5116661;28;20047;-28
2023/09/06 14:04:22;;;;;;;5.90;2.10;;;;;;;;;;5116838;28;20024;-28
2023/09/06 14:06:49;;;;;;;9.10;2.40;;;;;;;;;;5116533;28;20020;-28
2023/09/06 14:09:14;;;;;;;5.15;2.30;;;;;;;;;;5116821;28;20518;-28
2023/09/06 14:11:40;;;;;;;4.33;2.27;;;;;;;;;;5116672;28;20023;-28
2023/09/06 14:14:06;;;;;;;4.85;2.13;;;;;;;;;;5116518;28;20039;-29
2023/09/06 14:16:34;;;;;;;6.20;2.10;;;;;;;;;;5116382;28;20050;-28
2023/09/06 14:18:59;;;;;;;6.53;2.17;;;;;;;;;;5116229;28;20454;-28
2023/09/06 14:21:25;;;;;;;5.15;2.53;;;;;;;;;;5116272;28;20019;-28
2023/09/06 14:23:50;;;;;;;6.68;2.40;;;;;;;;;;5116491;28;20026;-27
2023/09/06 14:26:15;;;;;;;4.23;2.30;;;;;;;;;;5116169;28;20051;-27
2023/09/06 14:28:41;;;;;;;4.72;2.50;;;;;;;;;;5115957;28;20023;-28
2023/09/06 14:31:10;;;;;;;6.60;2.50;;;;;;;;;;5115859;28;20015;-28
2023/09/06 14:33:35;;;;;;;4.13;1.92;;;;;;;;;;5115813;28;20030;-27
2023/09/06 14:36:02;;;;;;;8.77;2.40;;;;;;;;;;5116004;28;20012;-27